Batchelor, Australia
Current Conditions -  °F | °C
As of 8:00 PM on Saturday 01 Nov 2014 (Local Time) from YPDN Reporting Station
Clear Clear  
Wind Chill: 86°   Ceiling: Unl
Heat Index: 87°   Visibility: 6mi
Dew Point: 63°   Wind: 12mph
Humidity: 45%   Direction: 20°NNE
Pressure: 29.77"   Gusts: NA
Location:  13.05°S, 131.03°E
Report Text: YPDN 011100Z 02010KT CAVOK 30/17 Q1008
Loading
Personal Weather Stations






























Interactive Weather Map
Tropical Storm Tracking
New forecast layout! Learn more

10-Day Weather Forecast

Advertisements
Track Severe Weather on mobile